Mekoryuk, AK

4:56 AM AKDT on August 27, 2014 (GMT -0800)
Mekoryuk | Change Station
CLOSE
Current Station
Airport
Location: Mekoryuk,
Elevation: 49 ft
Nearby Weather Stations

Elev 49 ft 60.37 °N, 166.27 °W | Updated 20 minutes ago

Overcast
Overcast
46 °F
Feels Like 46 °F
N
0
Wind Variable Wind from North

Today
High -- | Low -- °F
--% Chance of Precip.
Yesterday
High -- | Low -- °F
Precip. -- in
7:47 AM 10:23 PM
Waxing Crescent, 3% visible
Pressure 29.78 in
Visibility 10.0 miles
Clouds Mostly Cloudy 6000 ft
Overcast 8000 ft
Dew Point 39 °F
Humidity 76%
Rainfall 0.00 in
Snow Depth Not available.
UV 0 out of 12
Pollen Not available.
Air Quality Not available.
Flu Activity Not available.
METAR PAMY 271236Z 00000KT 10SM BKN060 OVC080 08/04 A2978 RMK AO1

More Conditions Fewer Conditions

Pressure 29.78 in
Visibility 10.0 miles
Clouds Mostly Cloudy 6000 ft
Overcast 8000 ft
Dew Point 39 °F
Humidity 76%
Rainfall 0.00 in
Snow Depth Not available.
UV 0 out of 12
Pollen Not available.
Air Quality Not available.
Flu Activity Not available.
METAR PAMY 271236Z 00000KT 10SM BKN060 OVC080 08/04 A2978 RMK AO1

More Conditions Fewer Conditions

10-Day Weather Forecast

Almanac

Astronomy

Aug. 27, 2014 Rise Set
Actual Time 7:47 AM AKDT 10:23 PM AKDT
Civil Twilight 7:00 AM AKDT 11:10 PM AKDT
Nautical Twilight 5:57 AM AKDT 12:12 AM AKDT
Astronomical Twilight 4:23 AM AKDT 1:42 AM AKDT
Moon 10:40 AM AKDT 10:31 PM AKDT
Length of Visible Light 16h 09m
Length of Day
14h 36m
Tomorrow will be 5m 26s shorter.
Waxing Crescent, 3% of the Moon is Illuminated
Today
Waxing Crescent
Sep 2
First Quarter
Sep 8
Full
Sep 15
Last Quarter
Sep 24
New

Today's Extremes

State Highs State Lows

Community

WunderPhotos

Upload Photos

1,747,676 photos uploaded!

Nearby

Snow Depth

Station Depth Elevation
Rocky Point 4 in 500 ft
Mcneil Canyon 1 in 1320 ft
Port Graham 0 in 300 ft
MF Bradley River 3 in 2300 ft
Point Mackenzie 1 in 200 ft

Earthquake Activity

City Distance Mag. Time & Date
No recent earthquake activity has been reported nearby.
Minimum magnitude displayed is 2.5.

Coastal Water Temperatures

Place Temperature
No Stations Reporting

Nearby Weather Stations